首页
METAR-TAF:

METAR-TAF

机场 :

圣约翰斯国际机场

聖約翰斯, 紐芬蘭-拉布拉多, 加拿大

纬度: 47-37N, 经度: 052-44W, 海拔: 134米

当前天气观测

该预报发布于20分钟前的04:00 UTC
风速4节,风向
温度 5°C
湿度 100%
气压 1019 hPa
能見度: 24.1公里
散云层高于500英尺
多云层高于900英尺
阴天层高于1800英尺

METAR: CYYT 220400Z 01004KT 15SM SCT005 BKN009 OVC018 05/05 A3009 RMK SF4SF2SC2 SLP195

时间: 01:50 (04:20 UTC)

预报

该预报发布于49分钟前的03:31 UTC
预报有效从22日的 03点(UTC)到 22日的 24点(UTC)
风速10节,风向西转西北
能見度: 10公里
散云层高于500英尺
阴天层高于1500英尺
短暂存在
从 22日的 03点(UTC)到 22日的 13点(UTC)
能見度: 3.2公里
阴天层高于500英尺
小雨, 轻雾
从 22日的 1300点(UTC)
风速15节,风向北转西北,有时为25节阵风
能見度: 10公里
阴天层高于2000英尺
小雨
从 22日的 2100点(UTC)
风速12节,风向,有时为22节阵风
能見度: 4.8公里
阴天层高于800英尺
小雨, 轻雾

TAF: CYYT 220331Z 2203/2224 30010KT P6SM SCT005 OVC015 TEMPO 2203/2213 2SM -RA BR OVC005 FM221300 33015G25KT P6SM -RA OVC020 FM222100 35012G22KT 3SM -RA BR OVC008 RMK NXT FCST BY 220600Z

超过4000个机场的气象观测和天气预报(METAR&TAF报告)。

可查询的气象台以黄色和红色小点在地图上表示。

将鼠标移到小点上方,可查看气象台名称。

然后点击查看天气观测和预报。

如需切换地图:点击带黑十字的绿色按钮放大地图;点击带横线的绿色按钮缩小地图;或者点击绿色箭头查看邻近地区的地图。


METAR-TAF: